sensor_id;sensor_type;location;lat;lon;timestamp;P1;durP1;ratioP1;P2;durP2;ratioP2
30613;SDS011;17381;51.690;5.270;2023-02-28T08:51:51;3.10;;;1.27;;
30613;SDS011;17381;51.690;5.270;2023-02-28T08:54:32;2.67;;;1.25;;
30613;SDS011;17381;51.690;5.270;2023-02-28T08:57:21;3.25;;;1.48;;
30613;SDS011;17381;51.690;5.270;2023-02-28T09:00:21;3.50;;;1.80;;
30613;SDS011;17381;51.690;5.270;2023-02-28T09:03:12;3.33;;;1.95;;
30613;SDS011;17381;51.690;5.270;2023-02-28T09:06:14;3.15;;;1.40;;
30613;SDS011;17381;51.690;5.270;2023-02-28T09:11:51;3.38;;;1.33;;
30613;SDS011;17381;51.690;5.270;2023-02-28T09:14:38;2.42;;;1.20;;
30613;SDS011;17381;51.690;5.270;2023-02-28T09:17:31;3.13;;;1.60;;
30613;SDS011;17381;51.690;5.270;2023-02-28T09:20:14;2.78;;;1.30;;
30613;SDS011;17381;51.690;5.270;2023-02-28T09:23:07;2.58;;;1.20;;
30613;SDS011;17381;51.690;5.270;2023-02-28T09:26:00;1.80;;;0.98;;
30613;SDS011;17381;51.690;5.270;2023-02-28T09:29:06;2.90;;;1.30;;
30613;SDS011;17381;51.690;5.270;2023-02-28T09:31:59;2.65;;;1.17;;
30613;SDS011;17381;51.690;5.270;2023-02-28T09:34:56;2.53;;;1.08;;
30613;SDS011;17381;51.690;5.270;2023-02-28T09:37:51;6.15;;;1.38;;
30613;SDS011;17381;51.690;5.270;2023-02-28T09:40:47;2.03;;;0.90;;
30613;SDS011;17381;51.690;5.270;2023-02-28T09:43:50;4.93;;;1.60;;
30613;SDS011;17381;51.690;5.270;2023-02-28T09:47:18;3.45;;;1.25;;
30613;SDS011;17381;51.690;5.270;2023-02-28T09:53:46;2.42;;;1.00;;
30613;SDS011;17381;51.690;5.270;2023-02-28T10:00:41;3.13;;;1.35;;
30613;SDS011;17381;51.690;5.270;2023-02-28T10:03:49;3.28;;;1.00;;
30613;SDS011;17381;51.690;5.270;2023-02-28T10:07:52;1.70;;;0.90;;
30613;SDS011;17381;51.690;5.270;2023-02-28T10:11:09;2.70;;;1.15;;
30613;SDS011;17381;51.690;5.270;2023-02-28T10:14:04;3.22;;;1.23;;
30613;SDS011;17381;51.690;5.270;2023-02-28T10:20:53;2.60;;;1.05;;
30613;SDS011;17381;51.690;5.270;2023-02-28T10:23:42;3.30;;;1.10;;
30613;SDS011;17381;51.690;5.270;2023-02-28T10:26:26;2.25;;;1.00;;
30613;SDS011;17381;51.690;5.270;2023-02-28T10:29:26;1.90;;;0.90;;
30613;SDS011;17381;51.690;5.270;2023-02-28T10:32:27;2.60;;;1.10;;
30613;SDS011;17381;51.690;5.270;2023-02-28T10:35:26;3.72;;;1.15;;
30613;SDS011;17381;51.690;5.270;2023-02-28T10:38:10;1.88;;;0.80;;
30613;SDS011;17381;51.690;5.270;2023-02-28T10:44:24;2.72;;;1.17;;
30613;SDS011;17381;51.690;5.270;2023-02-28T10:47:36;2.78;;;1.30;;
30613;SDS011;17381;51.690;5.270;2023-02-28T10:51:01;2.72;;;1.10;;
30613;SDS011;17381;51.690;5.270;2023-02-28T10:53:51;2.72;;;0.95;;
30613;SDS011;17381;51.690;5.270;2023-02-28T10:56:38;2.10;;;1.00;;
30613;SDS011;17381;51.690;5.270;2023-02-28T10:59:41;3.33;;;1.30;;
30613;SDS011;17381;51.690;5.270;2023-02-28T11:02:32;2.90;;;1.15;;
30613;SDS011;17381;51.690;5.270;2023-02-28T11:05:40;2.58;;;1.08;;
30613;SDS011;17381;51.690;5.270;2023-02-28T11:08:32;2.38;;;1.00;;
30613;SDS011;17381;51.690;5.270;2023-02-28T11:15:51;2.75;;;1.30;;
30613;SDS011;17381;51.690;5.270;2023-02-28T11:19:02;3.30;;;1.10;;
30613;SDS011;17381;51.690;5.270;2023-02-28T11:22:05;2.97;;;1.05;;
30613;SDS011;17381;51.690;5.270;2023-02-28T11:29:30;1.77;;;0.90;;
30613;SDS011;17381;51.690;5.270;2023-02-28T11:36:35;2.00;;;0.80;;
30613;SDS011;17381;51.690;5.270;2023-02-28T11:40:04;5.82;;;1.40;;
30613;SDS011;17381;51.690;5.270;2023-02-28T11:43:48;3.90;;;1.10;;
30613;SDS011;17381;51.690;5.270;2023-02-28T11:51:37;3.75;;;1.17;;
30613;SDS011;17381;51.690;5.270;2023-02-28T11:55:35;2.17;;;1.00;;
30613;SDS011;17381;51.690;5.270;2023-02-28T12:08:52;2.42;;;0.90;;
30613;SDS011;17381;51.690;5.270;2023-02-28T12:36:46;1.65;;;0.88;;
30613;SDS011;17381;51.690;5.270;2023-02-28T12:39:35;1.90;;;0.82;;
30613;SDS011;17381;51.690;5.270;2023-02-28T12:42:29;2.00;;;1.02;;
30613;SDS011;17381;51.690;5.270;2023-02-28T12:45:24;2.00;;;0.95;;
30613;SDS011;17381;51.690;5.270;2023-02-28T12:48:21;3.67;;;1.20;;
30613;SDS011;17381;51.690;5.270;2023-02-28T12:51:09;2.90;;;1.02;;
30613;SDS011;17381;51.690;5.270;2023-02-28T12:57:13;3.97;;;1.20;;
30613;SDS011;17381;51.690;5.270;2023-02-28T13:00:04;3.15;;;1.13;;
30613;SDS011;17381;51.690;5.270;2023-02-28T13:10:46;3.22;;;1.05;;
30613;SDS011;17381;51.690;5.270;2023-02-28T13:13:31;3.00;;;1.08;;
30613;SDS011;17381;51.690;5.270;2023-02-28T13:16:19;2.08;;;0.90;;
30613;SDS011;17381;51.690;5.270;2023-02-28T13:19:10;7.22;;;1.35;;
30613;SDS011;17381;51.690;5.270;2023-02-28T13:21:58;5.07;;;1.10;;
30613;SDS011;17381;51.690;5.270;2023-02-28T13:28:09;2.10;;;0.90;;
30613;SDS011;17381;51.690;5.270;2023-02-28T13:31:07;2.92;;;1.00;;
30613;SDS011;17381;51.690;5.270;2023-02-28T13:36:48;2.05;;;0.80;;
30613;SDS011;17381;51.690;5.270;2023-02-28T13:43:23;2.25;;;1.02;;
30613;SDS011;17381;51.690;5.270;2023-02-28T13:56:57;3.25;;;1.30;;
30613;SDS011;17381;51.690;5.270;2023-02-28T14:03:01;3.53;;;1.13;;
30613;SDS011;17381;51.690;5.270;2023-02-28T14:09:15;4.20;;;1.15;;
30613;SDS011;17381;51.690;5.270;2023-02-28T14:18:02;2.75;;;1.20;;
30613;SDS011;17381;51.690;5.270;2023-02-28T14:21:27;2.55;;;1.20;;
30613;SDS011;17381;51.690;5.270;2023-02-28T14:27:32;2.65;;;1.27;;
30613;SDS011;17381;51.690;5.270;2023-02-28T14:37:09;3.65;;;1.30;;
30613;SDS011;17381;51.690;5.270;2023-02-28T14:39:45;2.75;;;1.25;;
30613;SDS011;17381;51.690;5.270;2023-02-28T14:45:39;3.75;;;1.40;;
30613;SDS011;17381;51.690;5.270;2023-02-28T14:48:20;3.90;;;1.35;;
30613;SDS011;17381;51.690;5.270;2023-02-28T14:51:06;2.20;;;1.15;;
30613;SDS011;17381;51.690;5.270;2023-02-28T14:54:03;3.03;;;1.48;;
30613;SDS011;17381;51.690;5.270;2023-02-28T14:57:29;3.70;;;1.67;;
30613;SDS011;17381;51.690;5.270;2023-02-28T15:00:16;2.30;;;1.15;;
30613;SDS011;17381;51.690;5.270;2023-02-28T15:03:46;3.80;;;1.30;;
30613;SDS011;17381;51.690;5.270;2023-02-28T15:06:39;3.22;;;1.45;;
30613;SDS011;17381;51.690;5.270;2023-02-28T15:09:18;2.67;;;1.40;;
30613;SDS011;17381;51.690;5.270;2023-02-28T15:12:00;2.92;;;1.20;;
30613;SDS011;17381;51.690;5.270;2023-02-28T15:14:56;2.35;;;1.20;;
30613;SDS011;17381;51.690;5.270;2023-02-28T15:17:44;4.25;;;1.52;;
30613;SDS011;17381;51.690;5.270;2023-02-28T15:20:24;2.63;;;1.17;;
30613;SDS011;17381;51.690;5.270;2023-02-28T15:22:57;3.55;;;1.58;;
30613;SDS011;17381;51.690;5.270;2023-02-28T15:26:09;4.88;;;1.58;;
30613;SDS011;17381;51.690;5.270;2023-02-28T15:29:24;2.33;;;0.83;;
30613;SDS011;17381;51.690;5.270;2023-02-28T15:32:05;3.50;;;1.70;;
30613;SDS011;17381;51.690;5.270;2023-02-28T15:34:53;5.00;;;1.50;;
30613;SDS011;17381;51.690;5.270;2023-02-28T15:46:13;3.67;;;1.35;;
30613;SDS011;17381;51.690;5.270;2023-02-28T15:49:01;3.67;;;1.52;;
30613;SDS011;17381;51.690;5.270;2023-02-28T15:59:21;5.93;;;1.60;;
30613;SDS011;17381;51.690;5.270;2023-02-28T16:02:43;3.83;;;1.73;;
30613;SDS011;17381;51.690;5.270;2023-02-28T16:17:46;2.53;;;1.27;;
30613;SDS011;17381;51.690;5.270;2023-02-28T16:20:29;6.15;;;1.63;;
30613;SDS011;17381;51.690;5.270;2023-02-28T16:23:14;3.10;;;1.42;;
30613;SDS011;17381;51.690;5.270;2023-02-28T16:25:49;3.15;;;1.55;;
30613;SDS011;17381;51.690;5.270;2023-02-28T17:07:07;3.53;;;1.80;;
30613;SDS011;17381;51.690;5.270;2023-02-28T17:09:48;3.47;;;2.17;;
30613;SDS011;17381;51.690;5.270;2023-02-28T17:12:56;3.88;;;1.42;;
30613;SDS011;17381;51.690;5.270;2023-02-28T17:16:00;6.97;;;2.00;;
30613;SDS011;17381;51.690;5.270;2023-02-28T17:18:30;2.58;;;1.48;;
30613;SDS011;17381;51.690;5.270;2023-02-28T17:21:29;4.60;;;1.92;;
30613;SDS011;17381;51.690;5.270;2023-02-28T17:23:59;3.90;;;1.65;;
30613;SDS011;17381;51.690;5.270;2023-02-28T17:26:26;4.63;;;1.63;;
30613;SDS011;17381;51.690;5.270;2023-02-28T17:29:24;4.15;;;1.75;;
30613;SDS011;17381;51.690;5.270;2023-02-28T17:32:17;3.90;;;1.48;;
30613;SDS011;17381;51.690;5.270;2023-02-28T17:34:56;4.53;;;1.60;;
30613;SDS011;17381;51.690;5.270;2023-02-28T17:37:37;4.60;;;1.50;;
30613;SDS011;17381;51.690;5.270;2023-02-28T17:40:22;3.88;;;2.10;;
30613;SDS011;17381;51.690;5.270;2023-02-28T17:42:58;3.70;;;1.80;;
30613;SDS011;17381;51.690;5.270;2023-02-28T17:46:02;2.58;;;1.38;;
30613;SDS011;17381;51.690;5.270;2023-02-28T17:48:52;3.17;;;1.50;;
30613;SDS011;17381;51.690;5.270;2023-02-28T17:52:03;4.15;;;2.08;;
30613;SDS011;17381;51.690;5.270;2023-02-28T17:54:59;6.25;;;1.90;;
30613;SDS011;17381;51.690;5.270;2023-02-28T17:57:40;3.60;;;1.70;;
30613;SDS011;17381;51.690;5.270;2023-02-28T18:01:00;4.07;;;1.65;;
30613;SDS011;17381;51.690;5.270;2023-02-28T18:03:57;4.32;;;2.25;;
30613;SDS011;17381;51.690;5.270;2023-02-28T18:06:39;3.60;;;2.00;;
30613;SDS011;17381;51.690;5.270;2023-02-28T18:10:17;5.22;;;2.13;;
30613;SDS011;17381;51.690;5.270;2023-02-28T18:13:25;3.50;;;1.65;;
30613;SDS011;17381;51.690;5.270;2023-02-28T18:16:09;3.75;;;1.80;;
30613;SDS011;17381;51.690;5.270;2023-02-28T18:22:06;3.88;;;1.88;;
30613;SDS011;17381;51.690;5.270;2023-02-28T18:24:52;3.80;;;1.88;;
30613;SDS011;17381;51.690;5.270;2023-02-28T18:27:35;4.10;;;2.20;;
30613;SDS011;17381;51.690;5.270;2023-02-28T18:30:46;3.70;;;1.77;;
30613;SDS011;17381;51.690;5.270;2023-02-28T18:33:31;3.75;;;1.73;;
30613;SDS011;17381;51.690;5.270;2023-02-28T18:36:23;5.53;;;1.90;;
30613;SDS011;17381;51.690;5.270;2023-02-28T18:39:01;3.75;;;1.80;;
30613;SDS011;17381;51.690;5.270;2023-02-28T18:41:42;4.22;;;1.90;;
30613;SDS011;17381;51.690;5.270;2023-02-28T18:44:14;2.78;;;1.52;;
30613;SDS011;17381;51.690;5.270;2023-02-28T18:47:01;4.63;;;2.08;;
30613;SDS011;17381;51.690;5.270;2023-02-28T18:50:11;3.72;;;1.75;;
30613;SDS011;17381;51.690;5.270;2023-02-28T18:53:03;4.78;;;2.30;;
30613;SDS011;17381;51.690;5.270;2023-02-28T18:55:36;5.82;;;2.28;;
30613;SDS011;17381;51.690;5.270;2023-02-28T18:58:38;3.70;;;2.13;;
30613;SDS011;17381;51.690;5.270;2023-02-28T19:01:26;12.00;;;2.60;;
30613;SDS011;17381;51.690;5.270;2023-02-28T19:04:03;4.53;;;2.42;;
30613;SDS011;17381;51.690;5.270;2023-02-28T19:06:33;3.70;;;2.25;;
30613;SDS011;17381;51.690;5.270;2023-02-28T19:09:07;5.03;;;2.50;;
30613;SDS011;17381;51.690;5.270;2023-02-28T19:11:42;5.53;;;2.78;;
30613;SDS011;17381;51.690;5.270;2023-02-28T19:14:53;5.50;;;2.72;;
30613;SDS011;17381;51.690;5.270;2023-02-28T19:17:29;5.65;;;2.65;;
30613;SDS011;17381;51.690;5.270;2023-02-28T19:20:42;5.80;;;2.80;;
30613;SDS011;17381;51.690;5.270;2023-02-28T19:23:30;6.50;;;2.92;;
30613;SDS011;17381;51.690;5.270;2023-02-28T19:26:33;10.38;;;3.83;;
30613;SDS011;17381;51.690;5.270;2023-02-28T19:29:02;6.75;;;3.03;;
30613;SDS011;17381;51.690;5.270;2023-02-28T19:31:41;6.55;;;3.63;;
30613;SDS011;17381;51.690;5.270;2023-02-28T19:34:28;4.78;;;3.03;;
30613;SDS011;17381;51.690;5.270;2023-02-28T19:37:07;7.25;;;3.38;;
30613;SDS011;17381;51.690;5.270;2023-02-28T19:39:36;6.32;;;3.08;;
30613;SDS011;17381;51.690;5.270;2023-02-28T19:42:42;4.95;;;2.85;;
30613;SDS011;17381;51.690;5.270;2023-02-28T19:46:04;5.85;;;3.13;;
30613;SDS011;17381;51.690;5.270;2023-02-28T19:49:29;8.18;;;3.63;;
30613;SDS011;17381;51.690;5.270;2023-02-28T19:52:40;5.65;;;2.83;;
30613;SDS011;17381;51.690;5.270;2023-02-28T19:59:58;8.05;;;3.00;;
30613;SDS011;17381;51.690;5.270;2023-02-28T20:03:34;6.63;;;3.17;;
30613;SDS011;17381;51.690;5.270;2023-02-28T20:06:35;4.20;;;2.63;;
30613;SDS011;17381;51.690;5.270;2023-02-28T20:09:17;5.00;;;3.00;;
30613;SDS011;17381;51.690;5.270;2023-02-28T20:12:54;5.55;;;2.85;;
30613;SDS011;17381;51.690;5.270;2023-02-28T20:15:36;5.13;;;2.85;;
30613;SDS011;17381;51.690;5.270;2023-02-28T20:18:53;5.10;;;2.88;;
30613;SDS011;17381;51.690;5.270;2023-02-28T20:21:33;8.32;;;3.50;;
30613;SDS011;17381;51.690;5.270;2023-02-28T20:24:05;4.97;;;3.28;;
30613;SDS011;17381;51.690;5.270;2023-02-28T20:27:19;6.72;;;3.10;;
30613;SDS011;17381;51.690;5.270;2023-02-28T20:30:15;6.05;;;3.30;;
30613;SDS011;17381;51.690;5.270;2023-02-28T20:32:56;5.63;;;3.42;;
30613;SDS011;17381;51.690;5.270;2023-02-28T20:39:06;5.78;;;3.15;;
30613;SDS011;17381;51.690;5.270;2023-02-28T20:42:04;5.80;;;3.55;;
30613;SDS011;17381;51.690;5.270;2023-02-28T20:45:55;6.43;;;3.47;;
30613;SDS011;17381;51.690;5.270;2023-02-28T20:49:01;5.60;;;3.20;;
30613;SDS011;17381;51.690;5.270;2023-02-28T20:52:31;7.03;;;3.90;;
30613;SDS011;17381;51.690;5.270;2023-02-28T23:36:31;7.93;;;3.95;;
30613;SDS011;17381;51.690;5.270;2023-02-28T23:40:01;6.55;;;3.72;;
30613;SDS011;17381;51.690;5.270;2023-02-28T23:42:59;6.32;;;3.58;;
30613;SDS011;17381;51.690;5.270;2023-02-28T23:45:59;6.20;;;3.97;;
30613;SDS011;17381;51.690;5.270;2023-02-28T23:49:12;6.75;;;3.80;;
30613;SDS011;17381;51.690;5.270;2023-02-28T23:52:26;8.95;;;3.92;;
30613;SDS011;17381;51.690;5.270;2023-02-28T23:59:02;6.43;;;3.53;;
